sensor_id;sensor_type;location;lat;lon;timestamp;P1;durP1;ratioP1;P2;durP2;ratioP2
50379;SDS011;37474;59.468;18.040;2023-06-24T00:00:26;11.15;;;6.05;;
50379;SDS011;37474;59.468;18.040;2023-06-24T00:02:54;8.77;;;6.23;;
50379;SDS011;37474;59.468;18.040;2023-06-24T00:05:22;7.57;;;5.77;;
50379;SDS011;37474;59.468;18.040;2023-06-24T00:07:51;8.87;;;5.60;;
50379;SDS011;37474;59.468;18.040;2023-06-24T00:10:19;7.03;;;6.13;;
50379;SDS011;37474;59.468;18.040;2023-06-24T00:12:47;10.87;;;6.17;;
50379;SDS011;37474;59.468;18.040;2023-06-24T00:15:17;7.67;;;5.70;;
50379;SDS011;37474;59.468;18.040;2023-06-24T00:17:45;6.85;;;5.75;;
50379;SDS011;37474;59.468;18.040;2023-06-24T00:20:17;7.93;;;5.73;;
50379;SDS011;37474;59.468;18.040;2023-06-24T00:22:46;7.15;;;5.78;;
50379;SDS011;37474;59.468;18.040;2023-06-24T00:25:15;8.93;;;6.10;;
50379;SDS011;37474;59.468;18.040;2023-06-24T00:27:44;10.37;;;6.40;;
50379;SDS011;37474;59.468;18.040;2023-06-24T00:30:12;8.13;;;5.80;;
50379;SDS011;37474;59.468;18.040;2023-06-24T00:32:42;8.40;;;5.80;;
50379;SDS011;37474;59.468;18.040;2023-06-24T00:35:10;8.35;;;6.88;;
50379;SDS011;37474;59.468;18.040;2023-06-24T00:37:38;8.60;;;6.43;;
50379;SDS011;37474;59.468;18.040;2023-06-24T00:40:07;8.63;;;5.97;;
50379;SDS011;37474;59.468;18.040;2023-06-24T00:42:38;7.40;;;5.93;;
50379;SDS011;37474;59.468;18.040;2023-06-24T00:45:09;10.33;;;6.33;;
50379;SDS011;37474;59.468;18.040;2023-06-24T00:47:38;9.52;;;6.05;;
50379;SDS011;37474;59.468;18.040;2023-06-24T00:50:09;9.77;;;6.30;;
50379;SDS011;37474;59.468;18.040;2023-06-24T00:52:39;10.93;;;6.27;;
50379;SDS011;37474;59.468;18.040;2023-06-24T00:55:09;7.57;;;5.93;;
50379;SDS011;37474;59.468;18.040;2023-06-24T00:57:39;11.73;;;6.90;;
50379;SDS011;37474;59.468;18.040;2023-06-24T01:00:09;9.23;;;6.77;;
50379;SDS011;37474;59.468;18.040;2023-06-24T01:02:41;9.27;;;6.70;;
50379;SDS011;37474;59.468;18.040;2023-06-24T01:05:13;8.87;;;6.27;;
50379;SDS011;37474;59.468;18.040;2023-06-24T01:07:42;9.55;;;6.40;;
50379;SDS011;37474;59.468;18.040;2023-06-24T01:10:11;9.23;;;6.63;;
50379;SDS011;37474;59.468;18.040;2023-06-24T01:12:40;9.70;;;6.35;;
50379;SDS011;37474;59.468;18.040;2023-06-24T01:15:10;8.63;;;6.30;;
50379;SDS011;37474;59.468;18.040;2023-06-24T01:17:40;10.17;;;6.10;;
50379;SDS011;37474;59.468;18.040;2023-06-24T01:20:16;7.30;;;5.57;;
50379;SDS011;37474;59.468;18.040;2023-06-24T01:23:11;8.90;;;6.77;;
50379;SDS011;37474;59.468;18.040;2023-06-24T01:26:16;6.50;;;5.40;;
50379;SDS011;37474;59.468;18.040;2023-06-24T01:29:01;8.57;;;5.83;;
50379;SDS011;37474;59.468;18.040;2023-06-24T01:31:52;7.53;;;5.55;;
50379;SDS011;37474;59.468;18.040;2023-06-24T01:34:28;9.17;;;6.17;;
50379;SDS011;37474;59.468;18.040;2023-06-24T01:37:03;7.17;;;5.40;;
50379;SDS011;37474;59.468;18.040;2023-06-24T01:39:38;8.67;;;6.37;;
50379;SDS011;37474;59.468;18.040;2023-06-24T01:42:14;8.67;;;5.43;;
50379;SDS011;37474;59.468;18.040;2023-06-24T01:44:45;8.83;;;6.50;;
50379;SDS011;37474;59.468;18.040;2023-06-24T01:47:18;8.57;;;6.23;;
50379;SDS011;37474;59.468;18.040;2023-06-24T01:49:49;7.37;;;5.83;;
50379;SDS011;37474;59.468;18.040;2023-06-24T01:52:21;7.17;;;5.97;;
50379;SDS011;37474;59.468;18.040;2023-06-24T01:54:51;9.20;;;5.88;;
50379;SDS011;37474;59.468;18.040;2023-06-24T01:57:22;9.67;;;5.93;;
50379;SDS011;37474;59.468;18.040;2023-06-24T01:59:51;9.45;;;5.38;;
50379;SDS011;37474;59.468;18.040;2023-06-24T02:02:23;9.03;;;6.27;;
50379;SDS011;37474;59.468;18.040;2023-06-24T02:04:54;10.37;;;6.33;;
50379;SDS011;37474;59.468;18.040;2023-06-24T02:07:24;9.27;;;6.18;;
50379;SDS011;37474;59.468;18.040;2023-06-24T02:09:56;10.60;;;6.13;;
50379;SDS011;37474;59.468;18.040;2023-06-24T02:12:26;10.48;;;6.00;;
50379;SDS011;37474;59.468;18.040;2023-06-24T02:14:55;9.90;;;6.00;;
50379;SDS011;37474;59.468;18.040;2023-06-24T02:17:25;7.20;;;5.77;;
50379;SDS011;37474;59.468;18.040;2023-06-24T02:19:56;7.90;;;5.50;;
50379;SDS011;37474;59.468;18.040;2023-06-24T02:24:55;9.47;;;5.80;;
50379;SDS011;37474;59.468;18.040;2023-06-24T02:27:24;8.20;;;5.97;;
50379;SDS011;37474;59.468;18.040;2023-06-24T02:29:52;9.50;;;5.93;;
50379;SDS011;37474;59.468;18.040;2023-06-24T02:32:22;6.85;;;5.55;;
50379;SDS011;37474;59.468;18.040;2023-06-24T02:34:52;8.27;;;5.73;;
50379;SDS011;37474;59.468;18.040;2023-06-24T02:37:20;8.60;;;5.55;;
50379;SDS011;37474;59.468;18.040;2023-06-24T02:39:48;7.90;;;5.87;;
50379;SDS011;37474;59.468;18.040;2023-06-24T02:42:16;6.80;;;5.20;;
50379;SDS011;37474;59.468;18.040;2023-06-24T02:44:44;7.40;;;5.17;;
50379;SDS011;37474;59.468;18.040;2023-06-24T02:47:13;9.83;;;5.60;;
50379;SDS011;37474;59.468;18.040;2023-06-24T02:49:44;9.03;;;5.57;;
50379;SDS011;37474;59.468;18.040;2023-06-24T02:52:15;8.87;;;5.70;;
50379;SDS011;37474;59.468;18.040;2023-06-24T02:54:44;7.75;;;5.20;;
50379;SDS011;37474;59.468;18.040;2023-06-24T02:57:12;7.67;;;5.03;;
50379;SDS011;37474;59.468;18.040;2023-06-24T02:59:42;6.35;;;4.68;;
50379;SDS011;37474;59.468;18.040;2023-06-24T03:02:10;7.43;;;5.00;;
50379;SDS011;37474;59.468;18.040;2023-06-24T03:04:39;6.83;;;5.00;;
50379;SDS011;37474;59.468;18.040;2023-06-24T03:07:08;6.03;;;4.47;;
50379;SDS011;37474;59.468;18.040;2023-06-24T03:09:38;6.07;;;4.13;;
50379;SDS011;37474;59.468;18.040;2023-06-24T03:12:07;6.05;;;4.57;;
50379;SDS011;37474;59.468;18.040;2023-06-24T03:14:36;6.67;;;4.90;;
50379;SDS011;37474;59.468;18.040;2023-06-24T03:17:04;7.03;;;4.70;;
50379;SDS011;37474;59.468;18.040;2023-06-24T03:19:32;4.60;;;4.20;;
50379;SDS011;37474;59.468;18.040;2023-06-24T03:22:00;5.47;;;4.03;;
50379;SDS011;37474;59.468;18.040;2023-06-24T03:24:28;4.50;;;3.40;;
50379;SDS011;37474;59.468;18.040;2023-06-24T03:26:58;5.50;;;3.50;;
50379;SDS011;37474;59.468;18.040;2023-06-24T03:29:26;3.22;;;2.83;;
50379;SDS011;37474;59.468;18.040;2023-06-24T03:31:54;2.90;;;2.33;;
50379;SDS011;37474;59.468;18.040;2023-06-24T03:34:23;4.90;;;2.50;;
50379;SDS011;37474;59.468;18.040;2023-06-24T03:36:52;3.97;;;2.38;;
50379;SDS011;37474;59.468;18.040;2023-06-24T03:39:21;4.37;;;2.23;;
50379;SDS011;37474;59.468;18.040;2023-06-24T03:41:51;2.88;;;2.03;;
50379;SDS011;37474;59.468;18.040;2023-06-24T03:44:20;3.33;;;2.03;;
50379;SDS011;37474;59.468;18.040;2023-06-24T03:46:48;3.95;;;2.10;;
50379;SDS011;37474;59.468;18.040;2023-06-24T03:49:16;2.43;;;1.90;;
50379;SDS011;37474;59.468;18.040;2023-06-24T03:51:45;4.60;;;2.13;;
50379;SDS011;37474;59.468;18.040;2023-06-24T03:54:13;2.43;;;1.83;;
50379;SDS011;37474;59.468;18.040;2023-06-24T03:56:41;2.10;;;1.80;;
50379;SDS011;37474;59.468;18.040;2023-06-24T03:59:09;2.17;;;1.70;;
50379;SDS011;37474;59.468;18.040;2023-06-24T04:01:38;2.30;;;1.83;;
50379;SDS011;37474;59.468;18.040;2023-06-24T04:04:06;3.67;;;1.90;;
50379;SDS011;37474;59.468;18.040;2023-06-24T04:06:34;3.27;;;1.67;;
50379;SDS011;37474;59.468;18.040;2023-06-24T04:09:02;3.23;;;1.87;;
50379;SDS011;37474;59.468;18.040;2023-06-24T04:11:33;4.10;;;1.98;;
50379;SDS011;37474;59.468;18.040;2023-06-24T04:14:04;1.90;;;1.50;;
50379;SDS011;37474;59.468;18.040;2023-06-24T04:16:33;2.70;;;1.90;;
50379;SDS011;37474;59.468;18.040;2023-06-24T04:19:02;2.47;;;1.60;;
50379;SDS011;37474;59.468;18.040;2023-06-24T04:21:30;2.08;;;1.50;;
50379;SDS011;37474;59.468;18.040;2023-06-24T04:23:59;3.07;;;1.70;;
50379;SDS011;37474;59.468;18.040;2023-06-24T04:26:27;4.97;;;1.80;;
50379;SDS011;37474;59.468;18.040;2023-06-24T04:28:56;2.57;;;1.77;;
50379;SDS011;37474;59.468;18.040;2023-06-24T04:31:24;4.30;;;1.60;;
50379;SDS011;37474;59.468;18.040;2023-06-24T04:33:54;3.42;;;1.80;;
50379;SDS011;37474;59.468;18.040;2023-06-24T04:36:28;2.37;;;1.33;;
50379;SDS011;37474;59.468;18.040;2023-06-24T04:38:56;4.57;;;1.83;;
50379;SDS011;37474;59.468;18.040;2023-06-24T04:41:24;2.73;;;1.50;;
50379;SDS011;37474;59.468;18.040;2023-06-24T04:43:52;7.43;;;1.98;;
50379;SDS011;37474;59.468;18.040;2023-06-24T04:46:20;3.60;;;1.60;;
50379;SDS011;37474;59.468;18.040;2023-06-24T04:48:48;2.88;;;1.60;;
50379;SDS011;37474;59.468;18.040;2023-06-24T04:51:16;3.07;;;1.50;;
50379;SDS011;37474;59.468;18.040;2023-06-24T04:53:46;2.10;;;1.30;;
50379;SDS011;37474;59.468;18.040;2023-06-24T04:56:14;1.70;;;1.27;;
50379;SDS011;37474;59.468;18.040;2023-06-24T04:58:42;3.80;;;1.38;;
50379;SDS011;37474;59.468;18.040;2023-06-24T05:01:10;3.05;;;1.40;;
50379;SDS011;37474;59.468;18.040;2023-06-24T05:03:38;3.85;;;1.70;;
50379;SDS011;37474;59.468;18.040;2023-06-24T05:06:06;3.97;;;1.40;;
50379;SDS011;37474;59.468;18.040;2023-06-24T05:08:34;3.05;;;1.40;;
50379;SDS011;37474;59.468;18.040;2023-06-24T05:11:06;3.38;;;1.35;;
50379;SDS011;37474;59.468;18.040;2023-06-24T05:13:34;2.70;;;1.20;;
50379;SDS011;37474;59.468;18.040;2023-06-24T05:16:02;3.00;;;1.33;;
50379;SDS011;37474;59.468;18.040;2023-06-24T05:18:30;3.13;;;1.20;;
50379;SDS011;37474;59.468;18.040;2023-06-24T05:20:58;2.67;;;1.17;;
50379;SDS011;37474;59.468;18.040;2023-06-24T05:23:26;3.30;;;1.50;;
50379;SDS011;37474;59.468;18.040;2023-06-24T05:25:55;2.70;;;1.20;;
50379;SDS011;37474;59.468;18.040;2023-06-24T05:28:24;5.57;;;1.30;;
50379;SDS011;37474;59.468;18.040;2023-06-24T05:30:52;3.30;;;1.45;;
50379;SDS011;37474;59.468;18.040;2023-06-24T05:33:20;2.22;;;1.05;;
50379;SDS011;37474;59.468;18.040;2023-06-24T05:35:48;1.92;;;0.90;;
50379;SDS011;37474;59.468;18.040;2023-06-24T05:38:17;2.22;;;1.02;;
50379;SDS011;37474;59.468;18.040;2023-06-24T05:40:50;2.97;;;1.10;;
50379;SDS011;37474;59.468;18.040;2023-06-24T05:43:20;2.88;;;1.20;;
50379;SDS011;37474;59.468;18.040;2023-06-24T05:45:49;2.33;;;1.17;;
50379;SDS011;37474;59.468;18.040;2023-06-24T05:48:18;2.70;;;1.23;;
50379;SDS011;37474;59.468;18.040;2023-06-24T05:50:46;3.75;;;1.27;;
50379;SDS011;37474;59.468;18.040;2023-06-24T05:53:14;2.92;;;1.10;;
50379;SDS011;37474;59.468;18.040;2023-06-24T05:55:42;3.35;;;1.10;;
50379;SDS011;37474;59.468;18.040;2023-06-24T05:58:10;1.85;;;1.00;;
50379;SDS011;37474;59.468;18.040;2023-06-24T06:00:38;2.22;;;1.00;;
50379;SDS011;37474;59.468;18.040;2023-06-24T06:03:07;4.13;;;1.20;;
50379;SDS011;37474;59.468;18.040;2023-06-24T06:05:37;3.97;;;1.30;;
50379;SDS011;37474;59.468;18.040;2023-06-24T06:08:05;2.13;;;0.90;;
50379;SDS011;37474;59.468;18.040;2023-06-24T06:10:33;2.95;;;1.00;;
50379;SDS011;37474;59.468;18.040;2023-06-24T06:13:01;1.90;;;0.90;;
50379;SDS011;37474;59.468;18.040;2023-06-24T06:15:29;2.63;;;1.20;;
50379;SDS011;37474;59.468;18.040;2023-06-24T06:17:57;3.58;;;1.10;;
50379;SDS011;37474;59.468;18.040;2023-06-24T06:20:27;3.00;;;0.90;;
50379;SDS011;37474;59.468;18.040;2023-06-24T06:22:55;2.50;;;1.10;;
50379;SDS011;37474;59.468;18.040;2023-06-24T06:25:24;3.03;;;1.08;;
50379;SDS011;37474;59.468;18.040;2023-06-24T06:27:52;2.40;;;1.20;;
50379;SDS011;37474;59.468;18.040;2023-06-24T06:30:20;2.75;;;0.90;;
50379;SDS011;37474;59.468;18.040;2023-06-24T06:32:48;1.80;;;1.10;;
50379;SDS011;37474;59.468;18.040;2023-06-24T06:35:16;1.52;;;0.82;;
50379;SDS011;37474;59.468;18.040;2023-06-24T06:37:46;2.70;;;1.00;;
50379;SDS011;37474;59.468;18.040;2023-06-24T06:40:22;4.13;;;1.08;;
50379;SDS011;37474;59.468;18.040;2023-06-24T06:42:50;3.28;;;0.93;;
50379;SDS011;37474;59.468;18.040;2023-06-24T06:45:18;3.90;;;1.20;;
50379;SDS011;37474;59.468;18.040;2023-06-24T06:47:46;2.75;;;0.80;;
50379;SDS011;37474;59.468;18.040;2023-06-24T06:50:15;1.92;;;1.00;;
50379;SDS011;37474;59.468;18.040;2023-06-24T06:52:43;2.10;;;0.82;;
50379;SDS011;37474;59.468;18.040;2023-06-24T06:55:12;2.35;;;0.80;;
50379;SDS011;37474;59.468;18.040;2023-06-24T06:57:41;2.72;;;1.10;;
50379;SDS011;37474;59.468;18.040;2023-06-24T07:00:09;3.78;;;1.00;;
50379;SDS011;37474;59.468;18.040;2023-06-24T07:02:38;3.00;;;1.08;;
50379;SDS011;37474;59.468;18.040;2023-06-24T07:05:06;3.50;;;1.05;;
50379;SDS011;37474;59.468;18.040;2023-06-24T07:07:36;1.52;;;0.90;;
50379;SDS011;37474;59.468;18.040;2023-06-24T07:10:05;1.55;;;0.90;;
50379;SDS011;37474;59.468;18.040;2023-06-24T07:12:35;3.10;;;1.17;;
50379;SDS011;37474;59.468;18.040;2023-06-24T07:15:03;3.17;;;1.15;;
50379;SDS011;37474;59.468;18.040;2023-06-24T07:17:32;2.20;;;0.93;;
50379;SDS011;37474;59.468;18.040;2023-06-24T07:20:00;3.72;;;0.95;;
50379;SDS011;37474;59.468;18.040;2023-06-24T07:22:28;5.13;;;1.10;;
50379;SDS011;37474;59.468;18.040;2023-06-24T07:24:57;3.53;;;0.93;;
50379;SDS011;37474;59.468;18.040;2023-06-24T07:27:26;2.37;;;0.90;;
50379;SDS011;37474;59.468;18.040;2023-06-24T07:29:55;5.20;;;0.98;;
50379;SDS011;37474;59.468;18.040;2023-06-24T07:32:23;3.03;;;0.90;;
50379;SDS011;37474;59.468;18.040;2023-06-24T07:34:52;2.20;;;1.00;;
50379;SDS011;37474;59.468;18.040;2023-06-24T07:37:20;2.78;;;1.20;;
50379;SDS011;37474;59.468;18.040;2023-06-24T07:39:50;1.77;;;0.80;;
50379;SDS011;37474;59.468;18.040;2023-06-24T07:42:18;1.73;;;1.00;;
50379;SDS011;37474;59.468;18.040;2023-06-24T07:44:46;1.73;;;1.00;;
50379;SDS011;37474;59.468;18.040;2023-06-24T07:47:17;3.50;;;0.93;;
50379;SDS011;37474;59.468;18.040;2023-06-24T07:49:45;1.90;;;1.10;;
50379;SDS011;37474;59.468;18.040;2023-06-24T07:52:13;1.30;;;0.90;;
50379;SDS011;37474;59.468;18.040;2023-06-24T07:54:42;2.78;;;0.90;;
50379;SDS011;37474;59.468;18.040;2023-06-24T07:57:10;1.98;;;0.95;;
50379;SDS011;37474;59.468;18.040;2023-06-24T07:59:38;1.63;;;1.10;;
50379;SDS011;37474;59.468;18.040;2023-06-24T08:02:06;1.35;;;0.80;;
50379;SDS011;37474;59.468;18.040;2023-06-24T08:04:36;1.88;;;0.90;;
50379;SDS011;37474;59.468;18.040;2023-06-24T08:07:04;1.63;;;0.93;;
50379;SDS011;37474;59.468;18.040;2023-06-24T08:09:33;2.78;;;1.20;;
50379;SDS011;37474;59.468;18.040;2023-06-24T08:12:01;1.83;;;1.00;;
50379;SDS011;37474;59.468;18.040;2023-06-24T08:14:32;1.83;;;0.95;;
50379;SDS011;37474;59.468;18.040;2023-06-24T08:17:00;1.73;;;0.90;;
50379;SDS011;37474;59.468;18.040;2023-06-24T08:19:28;2.13;;;1.05;;
50379;SDS011;37474;59.468;18.040;2023-06-24T08:21:57;2.10;;;0.82;;
50379;SDS011;37474;59.468;18.040;2023-06-24T08:24:25;2.22;;;0.90;;
50379;SDS011;37474;59.468;18.040;2023-06-24T08:26:54;1.95;;;1.00;;
50379;SDS011;37474;59.468;18.040;2023-06-24T08:29:22;1.90;;;1.05;;
50379;SDS011;37474;59.468;18.040;2023-06-24T08:31:50;1.83;;;0.90;;
50379;SDS011;37474;59.468;18.040;2023-06-24T08:34:18;1.88;;;1.00;;
50379;SDS011;37474;59.468;18.040;2023-06-24T08:36:46;1.40;;;0.93;;
50379;SDS011;37474;59.468;18.040;2023-06-24T08:39:15;1.42;;;0.82;;
50379;SDS011;37474;59.468;18.040;2023-06-24T08:41:43;3.97;;;0.80;;
50379;SDS011;37474;59.468;18.040;2023-06-24T08:44:11;2.10;;;0.90;;
50379;SDS011;37474;59.468;18.040;2023-06-24T08:46:39;1.52;;;0.80;;
50379;SDS011;37474;59.468;18.040;2023-06-24T08:49:10;2.17;;;1.00;;
50379;SDS011;37474;59.468;18.040;2023-06-24T08:51:54;0.90;;;0.60;;
50379;SDS011;37474;59.468;18.040;2023-06-24T08:54:29;2.00;;;0.73;;
50379;SDS011;37474;59.468;18.040;2023-06-24T08:56:58;2.55;;;0.90;;
50379;SDS011;37474;59.468;18.040;2023-06-24T08:59:28;4.30;;;0.80;;
50379;SDS011;37474;59.468;18.040;2023-06-24T09:01:56;1.17;;;0.77;;
50379;SDS011;37474;59.468;18.040;2023-06-24T09:04:24;2.28;;;0.80;;
50379;SDS011;37474;59.468;18.040;2023-06-24T09:06:52;1.10;;;0.88;;
50379;SDS011;37474;59.468;18.040;2023-06-24T09:09:20;1.80;;;0.93;;
50379;SDS011;37474;59.468;18.040;2023-06-24T09:11:53;2.83;;;0.88;;
50379;SDS011;37474;59.468;18.040;2023-06-24T09:14:24;3.15;;;0.90;;
50379;SDS011;37474;59.468;18.040;2023-06-24T09:16:54;2.00;;;0.88;;
50379;SDS011;37474;59.468;18.040;2023-06-24T09:19:23;2.55;;;0.90;;
50379;SDS011;37474;59.468;18.040;2023-06-24T09:21:55;1.45;;;1.00;;
50379;SDS011;37474;59.468;18.040;2023-06-24T09:24:29;1.92;;;0.90;;
50379;SDS011;37474;59.468;18.040;2023-06-24T09:26:59;2.28;;;0.73;;
50379;SDS011;37474;59.468;18.040;2023-06-24T09:29:28;2.28;;;1.00;;
50379;SDS011;37474;59.468;18.040;2023-06-24T09:31:59;1.50;;;0.88;;
50379;SDS011;37474;59.468;18.040;2023-06-24T09:34:28;3.13;;;0.90;;
50379;SDS011;37474;59.468;18.040;2023-06-24T09:36:57;1.45;;;0.90;;
50379;SDS011;37474;59.468;18.040;2023-06-24T09:39:26;3.22;;;0.98;;
50379;SDS011;37474;59.468;18.040;2023-06-24T09:41:56;2.30;;;0.90;;
50379;SDS011;37474;59.468;18.040;2023-06-24T09:44:26;3.05;;;0.95;;
50379;SDS011;37474;59.468;18.040;2023-06-24T09:49:23;2.72;;;0.80;;
50379;SDS011;37474;59.468;18.040;2023-06-24T09:51:54;1.83;;;1.00;;
50379;SDS011;37474;59.468;18.040;2023-06-24T09:54:24;1.80;;;0.90;;
50379;SDS011;37474;59.468;18.040;2023-06-24T09:57:00;1.17;;;0.90;;
50379;SDS011;37474;59.468;18.040;2023-06-24T09:59:31;2.85;;;1.10;;
